Time;durP1;ratioP1;P1;durP2;ratioP2;P2;SDS_P1;SDS_P2;PMS_P1;PMS_P2;Temp;Humidity;BMP_temperature;BMP_pressure;BME280_temperature;BME280_humidity;BME280_pressure;Samples;Min_cycle;Max_cycle;Signal;HPM_P1;HPM_P2
2021/01/07 00:00:23;;;;;;;30.83;17.02;;;-0.10;99.90;;;;;;5027046;28;20049;-70
2021/01/07 00:02:49;;;;;;;32.70;17.00;;;-0.10;99.90;;;;;;5040460;28;20565;-70
2021/01/07 00:05:16;;;;;;;30.40;17.65;;;-0.10;99.90;;;;;;5042445;28;20391;-70
2021/01/07 00:07:42;;;;;;;33.78;17.33;;;-0.10;99.90;;;;;;5043247;28;20156;-69
2021/01/07 00:10:09;;;;;;;32.22;18.00;;;-0.10;99.90;;;;;;5045804;28;20095;-71
2021/01/07 00:12:36;;;;;;;34.88;16.80;;;-0.10;99.90;;;;;;5043651;28;20124;-70
2021/01/07 00:15:04;;;;;;;28.88;15.77;;;-0.10;99.90;;;;;;5041743;28;20144;-70
2021/01/07 00:17:30;;;;;;;28.77;16.52;;;-0.10;99.90;;;;;;5042716;28;20067;-70
2021/01/07 00:19:56;;;;;;;28.10;15.93;;;-0.10;99.90;;;;;;5043499;28;20469;-70
2021/01/07 00:22:23;;;;;;;21.08;12.38;;;-0.10;99.90;;;;;;5041535;28;20041;-70
2021/01/07 00:24:49;;;;;;;21.80;12.98;;;-0.10;99.90;;;;;;5046098;28;20056;-70
2021/01/07 00:27:15;;;;;;;28.27;15.13;;;-0.10;99.90;;;;;;5047865;28;20049;-70
2021/01/07 00:29:42;;;;;;;18.65;11.60;;;-0.10;99.90;;;;;;5039323;28;20163;-69
2021/01/07 00:32:08;;;;;;;26.25;14.75;;;-0.20;99.90;;;;;;5039720;28;20676;-70
2021/01/07 00:34:34;;;;;;;26.23;14.77;;;-0.10;99.90;;;;;;5046744;28;20141;-71
2021/01/07 00:37:01;;;;;;;26.52;14.40;;;-0.10;99.90;;;;;;5028787;28;20131;-70
2021/01/07 00:39:27;;;;;;;25.73;13.85;;;-0.10;99.90;;;;;;5019355;28;20292;-70
2021/01/07 00:41:56;;;;;;;27.70;14.88;;;-0.10;99.90;;;;;;5063018;28;20037;-70
2021/01/07 00:44:23;;;;;;;27.70;15.50;;;0.00;99.90;;;;;;5029062;28;20056;-70
2021/01/07 00:46:51;;;;;;;31.30;15.60;;;-0.10;99.90;;;;;;5047981;28;20139;-69
2021/01/07 00:49:18;;;;;;;30.13;16.15;;;-0.10;99.90;;;;;;5046717;28;20112;-70
2021/01/07 00:51:45;;;;;;;28.48;14.82;;;0.00;99.90;;;;;;5027366;28;20096;-70
2021/01/07 00:54:12;;;;;;;24.30;13.10;;;0.00;99.90;;;;;;5024280;28;20687;-70
2021/01/07 00:56:39;;;;;;;29.40;16.27;;;0.00;99.90;;;;;;5020658;28;20058;-70
2021/01/07 00:59:09;;;;;;;23.02;12.63;;;0.00;99.90;;;;;;5025897;28;20057;-70
2021/01/07 01:01:43;;;;;;;19.20;12.27;;;-0.10;99.90;;;;;;5026376;28;20128;-70
2021/01/07 01:04:10;;;;;;;21.98;12.48;;;-0.10;99.90;;;;;;5039530;28;20140;-70
2021/01/07 01:06:37;;;;;;;24.13;13.90;;;-0.10;99.90;;;;;;5045407;28;20052;-69
2021/01/07 01:09:05;;;;;;;23.77;12.20;;;-0.20;99.90;;;;;;5037607;28;20071;-70
2021/01/07 01:11:52;;;;;;;20.55;11.77;;;-0.10;99.90;;;;;;5045502;28;20128;-70
2021/01/07 01:14:20;;;;;;;27.55;14.48;;;-0.10;99.90;;;;;;5027560;28;20072;-70
2021/01/07 01:16:48;;;;;;;25.23;13.52;;;-0.10;99.90;;;;;;5039951;28;20053;-69
2021/01/07 01:19:18;;;;;;;20.02;11.98;;;-0.10;99.90;;;;;;5047632;28;20129;-69
2021/01/07 01:21:45;;;;;;;22.48;12.68;;;0.00;99.90;;;;;;5042910;28;20047;-69
2021/01/07 01:24:12;;;;;;;20.35;11.93;;;-0.10;99.90;;;;;;5046392;28;20432;-71
2021/01/07 01:26:39;;;;;;;20.55;12.27;;;0.00;99.90;;;;;;5046705;28;20063;-69
2021/01/07 01:29:05;;;;;;;21.83;12.35;;;-0.10;99.90;;;;;;5037484;28;20151;-69
2021/01/07 01:31:36;;;;;;;24.85;13.52;;;-0.10;99.90;;;;;;5039043;28;20144;-70
2021/01/07 01:34:03;;;;;;;24.38;13.63;;;-0.10;99.90;;;;;;5045273;28;20130;-70
2021/01/07 01:36:29;;;;;;;22.65;13.25;;;-0.10;99.90;;;;;;5043350;28;20045;-70
2021/01/07 01:38:56;;;;;;;22.50;13.02;;;-0.10;99.90;;;;;;5028764;28;20059;-70
2021/01/07 01:41:22;;;;;;;24.55;13.32;;;0.00;99.90;;;;;;5045342;28;20128;-70
2021/01/07 01:43:48;;;;;;;23.58;12.73;;;-0.10;99.90;;;;;;5046709;28;20061;-70
2021/01/07 01:46:15;;;;;;;20.48;10.55;;;-0.10;99.90;;;;;;5028208;28;20132;-70
2021/01/07 01:48:43;;;;;;;16.52;9.98;;;-0.10;99.90;;;;;;5047243;28;20063;-70
2021/01/07 01:51:09;;;;;;;23.17;11.60;;;-0.10;99.90;;;;;;5041561;28;20107;-71
2021/01/07 01:53:38;;;;;;;22.38;13.38;;;-0.10;99.90;;;;;;5045457;28;20138;-70
2021/01/07 01:56:06;;;;;;;22.98;12.45;;;-0.10;99.90;;;;;;5043545;28;20049;-70
2021/01/07 01:58:37;;;;;;;20.20;12.50;;;-0.10;99.90;;;;;;5038656;28;20417;-70
2021/01/07 02:01:03;;;;;;;23.58;13.18;;;-0.10;99.90;;;;;;5045034;28;20152;-69
2021/01/07 02:03:29;;;;;;;21.25;12.10;;;-0.10;99.90;;;;;;5024814;28;20061;-70
2021/01/07 02:05:58;;;;;;;21.30;12.73;;;-0.10;99.90;;;;;;5043129;28;20114;-70
2021/01/07 02:08:25;;;;;;;19.23;11.45;;;-0.10;99.90;;;;;;5038725;28;20107;-70
2021/01/07 02:10:52;;;;;;;25.70;12.88;;;-0.10;99.90;;;;;;5033891;28;20048;-70
2021/01/07 02:13:19;;;;;;;26.17;13.10;;;-0.10;99.90;;;;;;5042208;28;20045;-70
2021/01/07 02:15:45;;;;;;;19.63;11.60;;;-0.10;99.90;;;;;;5028071;28;20598;-69
2021/01/07 02:18:12;;;;;;;21.92;10.35;;;-0.10;99.90;;;;;;5011786;28;20077;-69
2021/01/07 02:20:39;;;;;;;21.85;12.60;;;0.00;99.90;;;;;;5037575;28;20044;-69
2021/01/07 02:23:05;;;;;;;17.33;11.18;;;-0.10;99.90;;;;;;5041738;28;20057;-70
2021/01/07 02:25:32;;;;;;;23.85;13.35;;;-0.10;99.90;;;;;;5039161;28;20130;-70
2021/01/07 02:27:58;;;;;;;24.45;13.18;;;-0.10;99.90;;;;;;5044200;28;20115;-70
2021/01/07 02:30:25;;;;;;;21.35;12.93;;;-0.10;99.90;;;;;;5037833;28;20085;-70
2021/01/07 02:32:51;;;;;;;21.40;11.07;;;-0.10;99.90;;;;;;5045560;28;20052;-68
2021/01/07 02:35:17;;;;;;;20.38;11.85;;;-0.10;99.90;;;;;;5045604;28;20684;-70
2021/01/07 02:37:46;;;;;;;19.50;13.05;;;-0.10;99.90;;;;;;5045548;28;20140;-70
2021/01/07 02:40:13;;;;;;;17.98;11.23;;;-0.10;99.90;;;;;;5044661;28;20057;-69
2021/01/07 02:42:40;;;;;;;21.77;13.00;;;-0.20;99.90;;;;;;5045613;28;20130;-70
2021/01/07 02:45:10;;;;;;;20.15;11.30;;;-0.10;99.90;;;;;;5027565;28;20107;-70
2021/01/07 02:47:38;;;;;;;23.40;12.73;;;-0.10;99.90;;;;;;5035487;28;20057;-70
2021/01/07 02:50:06;;;;;;;25.42;13.30;;;-0.10;99.90;;;;;;5036876;28;20076;-70
2021/01/07 02:52:33;;;;;;;25.90;14.20;;;-0.10;99.90;;;;;;5035805;28;20053;-71
2021/01/07 02:55:00;;;;;;;30.85;16.23;;;0.00;99.90;;;;;;5042066;28;20098;-70
2021/01/07 02:57:27;;;;;;;28.52;13.95;;;0.00;99.90;;;;;;5044600;28;20103;-71
2021/01/07 02:59:53;;;;;;;26.48;13.63;;;0.00;99.90;;;;;;5035874;28;20045;-71
2021/01/07 03:02:19;;;;;;;23.98;12.95;;;-0.10;99.90;;;;;;5044160;28;20135;-71
2021/01/07 03:04:46;;;;;;;26.85;14.50;;;-0.10;99.90;;;;;;5043189;28;20045;-71
2021/01/07 03:07:13;;;;;;;23.05;12.98;;;-0.10;99.90;;;;;;5059972;28;20052;-71
2021/01/07 03:09:39;;;;;;;25.13;13.75;;;-0.10;99.90;;;;;;5043833;28;20051;-69
2021/01/07 03:12:17;;;;;;;26.50;14.05;;;-0.10;99.90;;;;;;5043358;28;20128;-70
2021/01/07 03:14:44;;;;;;;26.73;14.68;;;-0.10;99.90;;;;;;5041726;28;20128;-70
2021/01/07 03:17:10;;;;;;;32.10;17.48;;;0.00;99.90;;;;;;5042749;28;20045;-70
2021/01/07 03:19:37;;;;;;;28.58;14.48;;;0.00;99.90;;;;;;5043997;28;20047;-70
2021/01/07 03:22:03;;;;;;;31.27;16.02;;;0.00;99.90;;;;;;5044255;28;20029;-70
2021/01/07 03:24:30;;;;;;;26.95;13.43;;;-0.10;99.90;;;;;;5043210;28;20088;-71
2021/01/07 03:26:57;;;;;;;30.20;14.82;;;-0.10;99.90;;;;;;5044427;28;20072;-69
2021/01/07 03:29:24;;;;;;;27.48;13.88;;;-0.10;99.90;;;;;;5039909;28;20150;-71
2021/01/07 03:31:51;;;;;;;28.25;14.20;;;-0.10;99.90;;;;;;5028434;28;20052;-69
2021/01/07 03:34:18;;;;;;;31.95;15.27;;;-0.10;99.90;;;;;;5043589;28;20465;-70
2021/01/07 03:36:44;;;;;;;28.38;14.32;;;-0.10;99.90;;;;;;5042677;28;20041;-70
2021/01/07 03:39:11;;;;;;;29.05;13.98;;;-0.10;99.90;;;;;;5043422;28;20417;-70
2021/01/07 03:41:37;;;;;;;25.20;14.20;;;-0.20;99.90;;;;;;5040592;28;20041;-70
2021/01/07 03:44:05;;;;;;;27.90;13.82;;;-0.10;99.90;;;;;;5043436;28;20194;-71
2021/01/07 03:46:31;;;;;;;30.15;14.43;;;-0.10;99.90;;;;;;5043821;28;20192;-70
2021/01/07 03:48:58;;;;;;;26.08;12.32;;;-0.20;99.90;;;;;;5045264;28;20157;-71
2021/01/07 03:51:24;;;;;;;29.90;15.00;;;-0.10;99.90;;;;;;5039429;28;20144;-71
2021/01/07 03:53:51;;;;;;;27.77;12.77;;;-0.10;99.90;;;;;;5042291;28;20128;-70
2021/01/07 03:56:17;;;;;;;29.60;14.40;;;-0.10;99.90;;;;;;5034072;28;20128;-71
2021/01/07 03:58:43;;;;;;;27.35;12.75;;;-0.10;99.90;;;;;;5037462;28;20055;-71
2021/01/07 04:01:09;;;;;;;32.03;14.32;;;-0.10;99.90;;;;;;5059263;28;20041;-71
2021/01/07 04:03:36;;;;;;;28.63;15.43;;;-0.10;99.90;;;;;;5044109;28;20150;-70
2021/01/07 04:06:02;;;;;;;36.53;16.65;;;0.00;99.90;;;;;;5042243;28;20116;-70
2021/01/07 04:08:29;;;;;;;37.97;18.88;;;-0.10;99.90;;;;;;5042421;28;20091;-71
2021/01/07 04:10:56;;;;;;;32.00;16.15;;;-0.20;99.90;;;;;;5041610;28;20136;-71
2021/01/07 04:13:23;;;;;;;33.45;15.95;;;-0.10;99.90;;;;;;5042582;28;20049;-70
2021/01/07 04:15:50;;;;;;;29.98;14.80;;;-0.10;99.90;;;;;;5041630;28;20155;-70
2021/01/07 04:18:16;;;;;;;31.17;15.05;;;-0.10;99.90;;;;;;5044075;28;20053;-71
2021/01/07 04:20:42;;;;;;;32.17;14.63;;;-0.10;99.90;;;;;;5043832;28;20043;-70
2021/01/07 04:23:09;;;;;;;29.60;13.60;;;-0.20;99.90;;;;;;5043603;28;20048;-70
2021/01/07 04:25:35;;;;;;;28.95;14.77;;;-0.10;99.90;;;;;;5025262;28;20130;-70
2021/01/07 04:28:02;;;;;;;31.63;15.20;;;-0.10;99.90;;;;;;5040372;28;20055;-71
2021/01/07 04:30:28;;;;;;;28.25;15.52;;;-0.10;99.90;;;;;;5037319;28;20579;-71
2021/01/07 04:32:54;;;;;;;30.08;14.73;;;-0.10;99.90;;;;;;5033604;28;20137;-70
2021/01/07 04:35:21;;;;;;;26.33;13.10;;;-0.20;99.90;;;;;;5035183;28;20037;-70
2021/01/07 04:37:47;;;;;;;29.83;16.77;;;-0.20;99.90;;;;;;5034082;28;20123;-70
2021/01/07 04:40:14;;;;;;;29.17;14.57;;;-0.20;99.90;;;;;;5025351;28;20943;-70
2021/01/07 04:42:42;;;;;;;28.33;14.48;;;-0.20;99.90;;;;;;5039665;28;20061;-70
2021/01/07 04:45:09;;;;;;;30.45;15.40;;;-0.10;99.90;;;;;;5042451;28;20498;-70
2021/01/07 04:47:36;;;;;;;31.38;14.63;;;-0.10;99.90;;;;;;5042229;28;20231;-70
2021/01/07 04:50:03;;;;;;;29.00;14.98;;;-0.10;99.90;;;;;;5044310;28;20059;-71
2021/01/07 04:52:29;;;;;;;34.10;16.20;;;-0.10;99.90;;;;;;5041160;28;20060;-70
2021/01/07 04:54:56;;;;;;;35.58;15.70;;;-0.10;99.90;;;;;;5043000;28;20674;-69
2021/01/07 04:57:22;;;;;;;36.35;16.40;;;-0.10;99.90;;;;;;5016575;28;20045;-70
2021/01/07 04:59:49;;;;;;;34.50;16.63;;;-0.10;99.90;;;;;;5035965;28;20129;-69
2021/01/07 05:02:17;;;;;;;33.60;15.55;;;-0.10;99.90;;;;;;5042625;28;20033;-70
2021/01/07 05:04:51;;;;;;;31.67;15.98;;;-0.10;99.90;;;;;;5040462;28;20613;-70
2021/01/07 05:07:19;;;;;;;37.23;18.73;;;0.00;99.90;;;;;;5029263;28;20055;-70
2021/01/07 05:09:46;;;;;;;35.35;17.75;;;-0.10;99.90;;;;;;5041703;28;20315;-71
2021/01/07 05:12:13;;;;;;;37.25;17.92;;;0.00;99.90;;;;;;5045385;28;20132;-70
2021/01/07 05:14:42;;;;;;;34.08;17.08;;;-0.10;99.90;;;;;;5047912;28;20076;-68
2021/01/07 05:17:10;;;;;;;33.80;18.10;;;-0.10;99.90;;;;;;5045151;28;20033;-69
2021/01/07 05:19:37;;;;;;;41.42;18.80;;;-0.20;99.90;;;;;;5047480;28;20409;-70
2021/01/07 05:22:04;;;;;;;47.63;20.70;;;-0.10;99.90;;;;;;5046408;28;20122;-71
2021/01/07 05:24:32;;;;;;;53.22;24.73;;;-0.10;99.90;;;;;;5029317;28;20052;-70
2021/01/07 05:27:15;;;;;;;45.10;20.55;;;-0.10;99.90;;;;;;5046440;28;20053;-69
2021/01/07 05:29:43;;;;;;;47.33;22.92;;;-0.10;99.90;;;;;;5038101;28;20136;-72
2021/01/07 05:32:11;;;;;;;48.75;22.42;;;-0.10;99.90;;;;;;5045803;28;20068;-70
2021/01/07 05:34:49;;;;;;;46.70;22.58;;;-0.10;99.90;;;;;;5046655;28;20071;-70
2021/01/07 05:37:20;;;;;;;48.80;22.75;;;0.00;99.90;;;;;;5028636;28;20068;-69
2021/01/07 05:39:47;;;;;;;51.00;23.27;;;0.00;99.90;;;;;;5046886;28;20053;-71
2021/01/07 05:42:14;;;;;;;50.83;24.02;;;0.00;99.90;;;;;;5033852;28;20148;-71
2021/01/07 05:44:45;;;;;;;52.05;24.00;;;0.00;99.90;;;;;;5042830;28;20053;-70
2021/01/07 05:47:29;;;;;;;60.30;26.08;;;0.00;99.90;;;;;;5032767;28;20084;-70
2021/01/07 05:49:56;;;;;;;54.53;25.80;;;0.10;99.90;;;;;;5032026;28;20684;-69
2021/01/07 05:52:29;;;;;;;49.80;23.17;;;0.10;99.90;;;;;;5009332;28;20149;-71
2021/01/07 05:54:56;;;;;;;53.05;23.50;;;0.00;99.90;;;;;;5024979;28;20239;-70
2021/01/07 05:57:24;;;;;;;56.63;27.00;;;0.00;99.90;;;;;;5040261;28;20083;-70
2021/01/07 05:59:52;;;;;;;56.70;25.52;;;0.10;99.90;;;;;;5018566;28;20107;-70
2021/01/07 06:02:20;;;;;;;59.75;27.35;;;0.10;99.90;;;;;;5033444;28;20060;-70
2021/01/07 06:04:51;;;;;;;56.50;24.88;;;0.20;99.90;;;;;;5034775;28;20068;-70
2021/01/07 06:07:18;;;;;;;56.22;25.13;;;0.10;99.90;;;;;;5025454;28;20059;-70
2021/01/07 06:09:47;;;;;;;70.68;27.02;;;0.20;99.90;;;;;;5043274;28;20049;-71
2021/01/07 06:12:15;;;;;;;63.58;25.73;;;0.20;99.90;;;;;;5043900;28;20061;-70
2021/01/07 06:14:45;;;;;;;56.72;26.35;;;0.20;99.90;;;;;;5045405;28;20048;-70
2021/01/07 06:17:13;;;;;;;59.33;24.98;;;0.10;99.90;;;;;;5038844;28;20136;-71
2021/01/07 06:19:43;;;;;;;62.78;26.90;;;0.20;99.90;;;;;;5028705;28;20141;-70
2021/01/07 06:22:13;;;;;;;76.95;28.80;;;0.10;99.90;;;;;;5043036;28;20118;-71
2021/01/07 06:24:41;;;;;;;74.78;29.95;;;0.20;99.90;;;;;;5045823;28;20072;-70
2021/01/07 06:27:28;;;;;;;66.60;25.65;;;0.20;99.90;;;;;;5043075;28;20051;-69
2021/01/07 06:30:02;;;;;;;61.90;28.25;;;0.10;99.90;;;;;;5035176;28;20132;-69
2021/01/07 06:32:29;;;;;;;68.13;28.88;;;0.20;99.90;;;;;;5053997;28;20080;-70
2021/01/07 06:34:57;;;;;;;69.28;28.50;;;0.20;99.90;;;;;;5031129;28;20052;-71
2021/01/07 06:37:49;;;;;;;69.28;27.52;;;0.20;99.90;;;;;;5023704;28;20140;-71
2021/01/07 06:40:18;;;;;;;74.88;30.80;;;0.20;99.90;;;;;;5033550;28;20735;-71
2021/01/07 06:42:50;;;;;;;78.45;31.95;;;0.20;99.90;;;;;;5042204;28;20094;-72
2021/01/07 06:45:20;;;;;;;82.57;30.52;;;0.20;99.90;;;;;;5043599;28;20735;-71
2021/01/07 06:47:47;;;;;;;76.72;29.48;;;0.20;99.90;;;;;;5036326;28;20050;-70
2021/01/07 06:50:14;;;;;;;73.35;31.35;;;0.20;99.90;;;;;;5026058;28;20053;-71
2021/01/07 06:52:42;;;;;;;81.25;31.98;;;0.30;99.90;;;;;;5042949;28;20067;-70
2021/01/07 06:55:14;;;;;;;74.63;30.40;;;0.30;99.90;;;;;;5043213;28;20103;-69
2021/01/07 06:57:57;;;;;;;79.32;31.67;;;0.30;99.90;;;;;;5043648;28;20148;-70
2021/01/07 07:00:25;;;;;;;82.90;30.42;;;0.30;99.90;;;;;;5038550;28;20145;-70
2021/01/07 07:03:10;;;;;;;77.15;27.80;;;0.20;99.90;;;;;;5041138;28;20052;-70
2021/01/07 07:05:38;;;;;;;77.85;30.45;;;0.30;99.90;;;;;;5044119;28;20120;-70
2021/01/07 07:08:10;;;;;;;84.63;30.55;;;0.30;99.90;;;;;;5041336;28;20059;-69
2021/01/07 07:10:36;;;;;;;72.03;27.73;;;0.30;99.90;;;;;;5041999;28;20079;-69
2021/01/07 07:13:19;;;;;;;73.90;28.77;;;0.30;99.90;;;;;;5042553;28;20059;-69
2021/01/07 07:15:48;;;;;;;75.35;31.92;;;0.30;99.90;;;;;;5042547;28;20501;-69
2021/01/07 07:18:34;;;;;;;72.80;29.92;;;0.30;99.90;;;;;;5034740;28;20113;-70
2021/01/07 07:21:18;;;;;;;70.82;29.27;;;0.30;99.90;;;;;;5009357;28;20053;-71
2021/01/07 07:23:45;;;;;;;71.32;29.23;;;0.30;99.90;;;;;;5041549;28;20055;-71
2021/01/07 07:26:31;;;;;;;74.03;27.45;;;0.30;99.90;;;;;;5041726;28;20059;-71
2021/01/07 07:29:00;;;;;;;76.63;28.30;;;0.30;99.90;;;;;;5039444;28;20057;-71
2021/01/07 07:31:55;;;;;;;77.07;28.80;;;0.30;99.90;;;;;;5028041;28;20037;-70
2021/01/07 07:34:31;;;;;;;71.22;28.60;;;0.30;99.90;;;;;;4997550;28;20058;-71
2021/01/07 07:36:59;;;;;;;73.88;30.38;;;0.30;99.90;;;;;;5035879;28;20430;-70
2021/01/07 07:39:27;;;;;;;71.63;27.52;;;0.30;99.90;;;;;;5003453;28;20077;-70
2021/01/07 07:42:09;;;;;;;63.85;26.98;;;0.30;99.90;;;;;;5043679;28;20123;-70
2021/01/07 07:44:35;;;;;;;62.50;26.10;;;0.30;99.90;;;;;;5022713;28;20108;-70
2021/01/07 07:47:02;;;;;;;57.50;24.27;;;0.30;99.90;;;;;;5030337;28;20081;-70
2021/01/07 07:49:29;;;;;;;59.55;25.45;;;0.30;99.90;;;;;;5029405;28;20095;-70
2021/01/07 07:51:55;;;;;;;59.50;23.85;;;0.30;99.90;;;;;;5043519;28;20071;-71
2021/01/07 07:54:21;;;;;;;59.50;25.13;;;0.30;99.90;;;;;;5042439;28;20236;-71
2021/01/07 07:56:57;;;;;;;59.13;24.95;;;0.30;99.90;;;;;;5041850;28;20132;-71
2021/01/07 07:59:32;;;;;;;55.33;24.55;;;0.30;99.90;;;;;;5019972;28;20060;-71
2021/01/07 08:01:58;;;;;;;58.53;23.63;;;0.30;99.90;;;;;;5043351;28;20136;-71
2021/01/07 08:04:26;;;;;;;53.65;25.38;;;0.30;99.90;;;;;;5025884;28;20053;-72
2021/01/07 08:06:53;;;;;;;57.03;26.08;;;0.30;99.90;;;;;;5043437;28;20421;-69
2021/01/07 08:09:20;;;;;;;68.30;27.35;;;0.30;99.90;;;;;;5043914;28;20104;-71
2021/01/07 08:11:52;;;;;;;65.72;25.23;;;0.30;99.90;;;;;;5026046;28;20476;-70
2021/01/07 08:14:26;;;;;;;69.70;28.95;;;0.30;99.90;;;;;;5042973;28;20070;-70
2021/01/07 08:16:57;;;;;;;82.73;30.23;;;0.40;99.90;;;;;;5042065;28;20064;-70
2021/01/07 08:19:32;;;;;;;74.15;28.45;;;0.40;99.90;;;;;;5042622;28;20130;-70
2021/01/07 08:21:59;;;;;;;93.38;32.45;;;0.50;99.90;;;;;;5043546;28;20049;-70
2021/01/07 08:24:26;;;;;;;91.53;32.78;;;0.40;99.90;;;;;;5044364;28;20087;-71
2021/01/07 08:27:13;;;;;;;95.20;34.47;;;0.40;99.90;;;;;;5025581;28;20626;-71
2021/01/07 08:29:43;;;;;;;90.70;34.22;;;0.50;99.90;;;;;;5018421;28;20078;-70
2021/01/07 08:32:12;;;;;;;94.57;34.85;;;0.50;99.90;;;;;;5037656;28;20417;-70
2021/01/07 08:34:38;;;;;;;91.68;34.47;;;0.50;99.90;;;;;;5014889;28;20049;-70
2021/01/07 08:37:14;;;;;;;88.75;34.00;;;0.50;99.90;;;;;;5016227;28;20123;-70
2021/01/07 08:39:41;;;;;;;93.95;31.85;;;0.50;99.90;;;;;;5026424;28;20254;-70
2021/01/07 08:42:08;;;;;;;79.03;32.58;;;0.40;99.90;;;;;;5039494;28;20135;-71
2021/01/07 08:44:36;;;;;;;85.38;34.70;;;0.40;99.90;;;;;;5032805;28;20513;-71
2021/01/07 08:47:03;;;;;;;90.53;34.45;;;0.50;99.90;;;;;;5042547;28;20581;-70
2021/01/07 08:49:30;;;;;;;85.10;32.40;;;0.50;99.90;;;;;;5029573;28;20064;-71
2021/01/07 08:52:00;;;;;;;103.32;37.17;;;0.50;99.90;;;;;;5030989;28;20057;-70
2021/01/07 08:54:26;;;;;;;71.57;29.67;;;0.50;99.90;;;;;;5058799;28;20521;-71
2021/01/07 08:56:55;;;;;;;81.93;31.33;;;0.50;99.90;;;;;;5040661;28;20651;-70
2021/01/07 08:59:29;;;;;;;58.15;25.92;;;0.60;99.90;;;;;;5039462;28;20049;-71
2021/01/07 09:02:17;;;;;;;63.00;26.85;;;0.50;99.90;;;;;;5029880;28;20041;-71
2021/01/07 09:04:43;;;;;;;65.97;28.25;;;0.50;99.90;;;;;;5035747;28;20053;-71
2021/01/07 09:07:17;;;;;;;62.72;27.77;;;0.60;99.90;;;;;;5042185;28;20075;-70
2021/01/07 09:09:44;;;;;;;70.53;30.20;;;0.50;99.90;;;;;;5034525;28;20144;-71
2021/01/07 09:12:16;;;;;;;69.82;29.90;;;0.40;99.90;;;;;;5042167;28;20049;-71
2021/01/07 09:14:47;;;;;;;80.28;33.55;;;0.50;99.90;;;;;;5047442;28;20055;-72
2021/01/07 09:17:15;;;;;;;83.28;37.13;;;0.40;99.90;;;;;;5039417;28;20041;-71
2021/01/07 09:19:42;;;;;;;77.00;33.28;;;0.40;99.90;;;;;;5033289;28;20045;-70
2021/01/07 09:22:09;;;;;;;85.38;34.95;;;0.40;99.90;;;;;;5029350;28;20077;-71
2021/01/07 09:24:37;;;;;;;61.72;30.58;;;0.30;99.90;;;;;;5033705;28;20109;-71
2021/01/07 09:27:15;;;;;;;79.15;34.10;;;0.30;99.90;;;;;;5039487;28;20037;-71
2021/01/07 09:29:42;;;;;;;68.70;32.22;;;0.40;99.90;;;;;;5028257;28;20081;-72
2021/01/07 09:32:11;;;;;;;63.40;29.45;;;0.40;99.90;;;;;;5020484;28;20055;-71
2021/01/07 09:34:38;;;;;;;60.30;28.40;;;0.40;99.90;;;;;;5026849;28;20418;-70
2021/01/07 09:37:10;;;;;;;55.10;25.67;;;0.40;99.90;;;;;;5025256;28;20547;-71
2021/01/07 09:39:37;;;;;;;44.72;24.10;;;0.40;99.90;;;;;;5013586;28;20072;-71
2021/01/07 09:42:04;;;;;;;42.78;22.40;;;0.40;99.90;;;;;;5014960;28;20658;-69
2021/01/07 09:44:31;;;;;;;43.88;23.10;;;0.40;99.90;;;;;;5025512;28;20071;-71
2021/01/07 09:46:58;;;;;;;41.08;21.45;;;0.40;99.90;;;;;;5026470;28;20581;-70
2021/01/07 09:49:26;;;;;;;43.55;22.88;;;0.40;99.90;;;;;;5009558;28;20211;-70
2021/01/07 09:51:53;;;;;;;40.28;21.73;;;0.30;99.90;;;;;;5026217;28;20049;-70
2021/01/07 09:54:22;;;;;;;51.05;24.65;;;0.30;99.90;;;;;;5026568;28;20136;-70
2021/01/07 09:56:53;;;;;;;48.88;24.42;;;0.40;99.90;;;;;;5040230;28;20044;-69
2021/01/07 09:59:21;;;;;;;46.83;22.38;;;0.30;99.90;;;;;;5036715;28;20053;-70
2021/01/07 10:01:52;;;;;;;46.78;24.90;;;0.40;99.90;;;;;;5043872;28;20132;-70
2021/01/07 10:04:19;;;;;;;48.00;25.08;;;0.40;99.90;;;;;;5030315;28;20091;-70
2021/01/07 10:06:45;;;;;;;47.92;23.92;;;0.40;99.90;;;;;;5034922;28;20514;-70
2021/01/07 10:09:12;;;;;;;50.72;25.00;;;0.50;99.90;;;;;;5028897;28;20249;-70
2021/01/07 10:11:38;;;;;;;46.50;24.40;;;0.50;99.90;;;;;;5043758;28;20641;-70
2021/01/07 10:14:05;;;;;;;46.08;23.10;;;0.50;99.90;;;;;;5044889;28;20123;-69
2021/01/07 10:16:31;;;;;;;49.78;26.25;;;0.50;99.90;;;;;;5028528;28;20050;-70
2021/01/07 10:18:58;;;;;;;49.78;26.40;;;0.60;99.90;;;;;;5026910;28;20056;-70
2021/01/07 10:21:25;;;;;;;50.65;26.58;;;0.60;99.90;;;;;;5030762;28;20725;-70
2021/01/07 10:23:52;;;;;;;43.95;24.63;;;0.60;99.90;;;;;;5035764;28;20522;-70
2021/01/07 10:26:20;;;;;;;45.03;25.83;;;0.60;99.90;;;;;;5036272;28;20049;-70
2021/01/07 10:28:48;;;;;;;46.28;24.75;;;0.70;99.90;;;;;;5020195;28;20139;-70
2021/01/07 10:31:15;;;;;;;46.33;22.80;;;0.70;99.90;;;;;;5044384;28;20052;-70
2021/01/07 10:33:43;;;;;;;45.75;24.10;;;0.70;99.90;;;;;;5044740;28;20049;-69
2021/01/07 10:36:13;;;;;;;56.03;32.15;;;0.60;99.90;;;;;;5043874;28;20094;-70
2021/01/07 10:38:41;;;;;;;42.92;24.40;;;0.70;99.90;;;;;;5046417;28;20053;-70
2021/01/07 10:41:08;;;;;;;46.72;25.80;;;0.70;99.90;;;;;;5041969;28;20048;-72
2021/01/07 10:43:35;;;;;;;42.83;23.63;;;0.70;99.90;;;;;;5029561;28;20056;-69
2021/01/07 10:46:03;;;;;;;48.92;25.17;;;0.60;99.90;;;;;;5045901;28;20125;-70
2021/01/07 10:48:31;;;;;;;50.95;26.65;;;0.60;99.90;;;;;;5033238;28;20387;-70
2021/01/07 10:51:00;;;;;;;49.50;28.05;;;0.70;99.90;;;;;;5032128;28;20132;-70
2021/01/07 10:53:52;;;;;;;50.28;25.75;;;0.70;99.90;;;;;;5032096;28;20154;-69
2021/01/07 10:56:25;;;;;;;49.40;26.90;;;0.70;99.90;;;;;;5022992;28;20443;-70
2021/01/07 10:59:02;;;;;;;55.72;29.00;;;0.70;99.90;;;;;;5033345;28;20061;-70
2021/01/07 11:01:32;;;;;;;55.05;27.40;;;0.70;99.90;;;;;;5028753;28;20064;-71
2021/01/07 11:04:36;;;;;;;55.88;28.70;;;0.70;99.90;;;;;;5029505;28;20045;-71
2021/01/07 11:07:16;;;;;;;56.75;26.88;;;0.80;99.90;;;;;;5042924;28;20049;-70
2021/01/07 11:09:47;;;;;;;54.65;27.98;;;0.70;99.90;;;;;;5045082;28;20045;-71
2021/01/07 11:12:30;;;;;;;67.78;32.75;;;0.60;99.90;;;;;;5043511;28;20056;-71
2021/01/07 11:15:03;;;;;;;98.40;40.45;;;0.80;99.90;;;;;;5030382;28;20510;-72
2021/01/07 11:17:33;;;;;;;66.25;30.15;;;0.80;99.90;;;;;;5034241;28;20087;-70
2021/01/07 11:20:03;;;;;;;58.78;26.95;;;0.80;99.90;;;;;;5033045;28;20494;-72
2021/01/07 11:22:32;;;;;;;58.83;27.05;;;0.80;99.90;;;;;;5017541;28;20542;-71
2021/01/07 11:25:03;;;;;;;64.07;31.45;;;0.90;99.90;;;;;;5020280;28;20057;-71
2021/01/07 11:27:31;;;;;;;56.30;29.13;;;1.00;99.90;;;;;;5020267;28;20045;-71
2021/01/07 11:30:01;;;;;;;71.07;31.65;;;0.90;99.90;;;;;;5013457;28;20584;-69
2021/01/07 11:32:28;;;;;;;60.63;28.65;;;0.80;99.90;;;;;;5022732;28;20107;-71
2021/01/07 11:34:58;;;;;;;60.78;30.20;;;0.90;99.90;;;;;;5024860;28;20060;-70
2021/01/07 11:37:37;;;;;;;62.63;32.25;;;0.90;99.90;;;;;;5006641;28;20057;-71
2021/01/07 11:40:06;;;;;;;67.75;31.88;;;0.90;99.90;;;;;;5023221;28;20060;-71
2021/01/07 11:42:35;;;;;;;61.50;29.40;;;0.90;99.90;;;;;;5016218;28;20061;-71
2021/01/07 11:45:16;;;;;;;63.00;31.63;;;0.90;99.90;;;;;;5022059;28;20502;-70
2021/01/07 11:47:56;;;;;;;59.40;30.05;;;0.90;99.90;;;;;;5040754;28;20132;-70
2021/01/07 11:50:24;;;;;;;61.17;30.63;;;1.00;99.90;;;;;;5039070;28;20128;-70
2021/01/07 11:52:52;;;;;;;68.38;30.65;;;0.90;99.90;;;;;;5031731;28;20056;-71
2021/01/07 11:55:18;;;;;;;60.88;29.98;;;0.80;99.90;;;;;;5023631;28;20056;-70
2021/01/07 11:57:46;;;;;;;64.80;29.98;;;0.90;99.90;;;;;;5041149;28;20143;-70
2021/01/07 12:00:15;;;;;;;64.78;30.02;;;0.90;99.90;;;;;;5050309;28;20127;-70
2021/01/07 12:02:42;;;;;;;49.60;27.48;;;1.00;99.90;;;;;;5040618;28;20049;-71
2021/01/07 12:05:12;;;;;;;59.63;30.92;;;0.90;99.90;;;;;;5044062;28;20161;-69
2021/01/07 12:07:41;;;;;;;53.58;29.55;;;1.00;99.90;;;;;;5042287;28;20130;-69
2021/01/07 12:10:09;;;;;;;54.10;29.40;;;1.00;99.90;;;;;;5037532;28;20937;-70
2021/01/07 12:12:42;;;;;;;61.50;30.65;;;1.00;99.90;;;;;;5010580;28;20053;-71
2021/01/07 12:15:15;;;;;;;57.22;31.58;;;1.10;99.90;;;;;;5033523;28;20568;-71
2021/01/07 12:17:42;;;;;;;61.72;30.45;;;1.10;99.90;;;;;;5018264;28;20053;-71
2021/01/07 12:20:10;;;;;;;59.13;30.65;;;1.10;99.90;;;;;;5027749;28;20052;-71
2021/01/07 12:22:37;;;;;;;64.30;32.92;;;1.10;99.90;;;;;;5033346;28;20140;-71
2021/01/07 12:25:05;;;;;;;56.75;29.38;;;1.00;99.90;;;;;;5040300;28;20049;-71
2021/01/07 12:27:38;;;;;;;58.00;29.25;;;1.10;99.90;;;;;;5023542;28;20723;-70
2021/01/07 12:30:16;;;;;;;55.45;30.73;;;1.10;99.90;;;;;;5019530;28;20516;-70
2021/01/07 12:32:51;;;;;;;57.00;30.08;;;1.10;99.90;;;;;;5027159;28;20042;-69
2021/01/07 12:35:23;;;;;;;56.10;29.13;;;1.10;99.90;;;;;;5000221;28;20042;-71
2021/01/07 12:38:08;;;;;;;55.58;28.67;;;1.00;99.90;;;;;;4997072;28;20148;-70
2021/01/07 12:40:37;;;;;;;61.97;33.90;;;1.00;99.90;;;;;;5028221;28;20068;-70
2021/01/07 12:43:06;;;;;;;67.30;33.15;;;1.00;99.90;;;;;;5025752;28;20147;-71